createdAt,value
2019-02-08T00:04:00.000Z,3.9
2019-02-08T00:09:00.000Z,3.9
2019-02-08T00:15:00.000Z,3.9
2019-02-08T00:20:00.000Z,3.9
2019-02-08T00:25:00.000Z,3.9
2019-02-08T00:30:00.000Z,4.0
2019-02-08T00:35:00.000Z,4.1
2019-02-08T00:40:00.000Z,4.1
2019-02-08T00:45:00.000Z,4.1
2019-02-08T00:50:00.000Z,4.0
2019-02-08T00:55:00.000Z,3.9
2019-02-08T01:00:00.000Z,3.8
2019-02-08T01:05:00.000Z,3.7
2019-02-08T01:10:00.000Z,3.8
2019-02-08T01:15:00.000Z,3.9
2019-02-08T01:20:00.000Z,3.9
2019-02-08T01:25:00.000Z,4.0
2019-02-08T01:30:00.000Z,4.0
2019-02-08T01:35:00.000Z,4.0
2019-02-08T01:40:00.000Z,4.0
2019-02-08T01:45:00.000Z,4.0
2019-02-08T01:50:00.000Z,4.1
2019-02-08T01:55:00.000Z,4.1
2019-02-08T02:00:00.000Z,4.1
2019-02-08T02:05:00.000Z,4.1
2019-02-08T02:10:00.000Z,4.2
2019-02-08T02:15:00.000Z,4.2
2019-02-08T02:20:00.000Z,4.3
2019-02-08T02:25:00.000Z,4.3
2019-02-08T02:30:00.000Z,4.4
2019-02-08T02:35:00.000Z,4.4
2019-02-08T02:40:00.000Z,4.4
2019-02-08T02:45:00.000Z,4.5
2019-02-08T02:50:00.000Z,4.5
2019-02-08T02:55:00.000Z,4.5
2019-02-08T03:00:00.000Z,4.4
2019-02-08T03:05:00.000Z,4.3
2019-02-08T03:10:00.000Z,4.2
2019-02-08T03:15:00.000Z,4.2
2019-02-08T03:20:00.000Z,4.2
2019-02-08T03:25:00.000Z,4.3
2019-02-08T03:30:00.000Z,4.4
2019-02-08T03:35:00.000Z,4.5
2019-02-08T03:40:00.000Z,4.5
2019-02-08T03:45:00.000Z,4.5
2019-02-08T03:50:00.000Z,4.5
2019-02-08T03:55:00.000Z,4.6
2019-02-08T04:00:00.000Z,4.7
2019-02-08T04:05:00.000Z,4.7
2019-02-08T04:10:00.000Z,4.7
2019-02-08T04:15:00.000Z,4.7
2019-02-08T04:20:00.000Z,4.7
2019-02-08T04:25:00.000Z,4.7
2019-02-08T04:30:00.000Z,4.7
2019-02-08T04:35:00.000Z,4.7
2019-02-08T04:40:00.000Z,4.7
2019-02-08T04:45:00.000Z,4.7
2019-02-08T04:50:00.000Z,4.6
2019-02-08T04:55:00.000Z,4.6
2019-02-08T05:00:00.000Z,4.5
2019-02-08T05:05:00.000Z,4.5
2019-02-08T05:10:00.000Z,4.4
2019-02-08T05:15:00.000Z,4.4
2019-02-08T05:20:00.000Z,4.3
2019-02-08T05:25:00.000Z,4.3
2019-02-08T05:30:00.000Z,4.3
2019-02-08T05:35:00.000Z,4.3
2019-02-08T05:40:00.000Z,4.2
2019-02-08T05:45:00.000Z,4.2
2019-02-08T05:50:00.000Z,4.2
2019-02-08T05:55:00.000Z,4.2
2019-02-08T06:00:00.000Z,4.2
2019-02-08T06:06:00.000Z,4.2
2019-02-08T06:11:00.000Z,4.2
2019-02-08T06:16:00.000Z,4.2
2019-02-08T06:21:00.000Z,4.2
2019-02-08T06:26:00.000Z,4.2
2019-02-08T06:31:00.000Z,4.2
2019-02-08T06:36:00.000Z,4.2
2019-02-08T06:41:00.000Z,4.2
2019-02-08T06:46:00.000Z,4.2
2019-02-08T06:51:00.000Z,4.3
2019-02-08T06:56:00.000Z,4.3
2019-02-08T07:01:00.000Z,4.4
2019-02-08T07:06:00.000Z,4.4
2019-02-08T07:11:00.000Z,4.5
2019-02-08T07:16:00.000Z,4.6
2019-02-08T07:21:00.000Z,4.6
2019-02-08T07:26:00.000Z,4.7
2019-02-08T07:31:00.000Z,4.8
2019-02-08T07:36:00.000Z,4.9
2019-02-08T07:41:00.000Z,5.0
2019-02-08T07:46:00.000Z,5.1
2019-02-08T07:51:00.000Z,5.2
2019-02-08T07:56:00.000Z,5.3
2019-02-08T08:01:00.000Z,5.3
2019-02-08T08:06:00.000Z,5.4
2019-02-08T08:11:00.000Z,5.5
2019-02-08T08:16:00.000Z,5.6
2019-02-08T08:21:00.000Z,5.7
2019-02-08T08:26:00.000Z,5.8
2019-02-08T08:31:00.000Z,6.0
2019-02-08T08:36:00.000Z,6.1
2019-02-08T08:41:00.000Z,6.3
2019-02-08T08:46:00.000Z,6.5
2019-02-08T08:51:00.000Z,6.6
2019-02-08T08:56:00.000Z,6.8
2019-02-08T09:01:00.000Z,7.3
2019-02-08T09:06:00.000Z,8.0
2019-02-08T09:11:00.000Z,8.4
2019-02-08T09:16:00.000Z,8.9
2019-02-08T09:21:00.000Z,9.0
2019-02-08T09:26:00.000Z,8.7
2019-02-08T09:31:00.000Z,8.3
2019-02-08T09:36:00.000Z,8.3
2019-02-08T09:41:00.000Z,8.7
2019-02-08T09:46:00.000Z,9.1
2019-02-08T09:51:00.000Z,9.7
2019-02-08T09:56:00.000Z,10.5
2019-02-08T10:01:00.000Z,10.8
2019-02-08T10:06:00.000Z,10.8
2019-02-08T10:11:00.000Z,10.5
2019-02-08T10:16:00.000Z,10.5
2019-02-08T10:21:00.000Z,11.1
2019-02-08T10:26:00.000Z,11.7
2019-02-08T10:31:00.000Z,12.1
2019-02-08T10:36:00.000Z,12.2
2019-02-08T10:41:00.000Z,11.9
2019-02-08T10:46:00.000Z,11.8
2019-02-08T10:51:00.000Z,11.9
2019-02-08T10:56:00.000Z,12.0
2019-02-08T11:01:00.000Z,12.1
2019-02-08T11:06:00.000Z,12.1
2019-02-08T11:11:00.000Z,11.9
2019-02-08T11:16:00.000Z,12.0
2019-02-08T11:21:00.000Z,12.2
2019-02-08T11:26:00.000Z,12.3
2019-02-08T11:31:00.000Z,12.2
2019-02-08T11:36:00.000Z,11.9
2019-02-08T11:41:00.000Z,11.5
2019-02-08T11:46:00.000Z,11.5
2019-02-08T11:51:00.000Z,11.4
2019-02-08T11:56:00.000Z,10.9
2019-02-08T12:01:00.000Z,10.6
2019-02-08T12:06:00.000Z,10.4
2019-02-08T12:11:00.000Z,10.2
2019-02-08T12:17:00.000Z,10.1
2019-02-08T12:22:00.000Z,10.1
2019-02-08T12:27:00.000Z,10.0
2019-02-08T12:32:00.000Z,10.1
2019-02-08T12:37:00.000Z,10.2
2019-02-08T12:42:00.000Z,10.3
2019-02-08T12:47:00.000Z,10.4
2019-02-08T12:52:00.000Z,10.3
2019-02-08T12:57:00.000Z,10.3
2019-02-08T13:02:00.000Z,10.3
2019-02-08T13:07:00.000Z,10.5
2019-02-08T13:12:00.000Z,10.6
2019-02-08T13:17:00.000Z,10.7
2019-02-08T13:22:00.000Z,10.8
2019-02-08T13:27:00.000Z,10.8
2019-02-08T13:32:00.000Z,10.9
2019-02-08T13:37:00.000Z,10.9
2019-02-08T13:42:00.000Z,10.9
2019-02-08T13:47:00.000Z,11.0
2019-02-08T13:52:00.000Z,10.9
2019-02-08T13:57:00.000Z,10.8
2019-02-08T14:02:00.000Z,10.7
2019-02-08T14:07:00.000Z,10.6
2019-02-08T14:12:00.000Z,10.6
2019-02-08T14:17:00.000Z,10.6
2019-02-08T14:22:00.000Z,10.6
2019-02-08T14:27:00.000Z,10.5
2019-02-08T14:32:00.000Z,10.3
2019-02-08T14:37:00.000Z,10.2
2019-02-08T14:42:00.000Z,10.1
2019-02-08T14:47:00.000Z,10.0
2019-02-08T14:52:00.000Z,9.9
2019-02-08T14:57:00.000Z,9.9
2019-02-08T15:02:00.000Z,9.7
2019-02-08T15:07:00.000Z,9.7
2019-02-08T15:12:00.000Z,9.6
2019-02-08T15:17:00.000Z,9.5
2019-02-08T15:22:00.000Z,9.5
2019-02-08T15:27:00.000Z,9.4
2019-02-08T15:32:00.000Z,9.4
2019-02-08T15:37:00.000Z,9.2
2019-02-08T15:42:00.000Z,9.1
2019-02-08T15:47:00.000Z,8.9
2019-02-08T15:52:00.000Z,8.6
2019-02-08T15:57:00.000Z,8.4
2019-02-08T16:02:00.000Z,8.2
2019-02-08T16:07:00.000Z,8.0
2019-02-08T16:12:00.000Z,7.7
2019-02-08T16:17:00.000Z,7.5
2019-02-08T16:22:00.000Z,7.3
2019-02-08T16:27:00.000Z,7.2
2019-02-08T16:32:00.000Z,7.1
2019-02-08T16:37:00.000Z,6.9
2019-02-08T16:42:00.000Z,6.8
2019-02-08T16:47:00.000Z,6.6
2019-02-08T16:52:00.000Z,6.5
2019-02-08T16:57:00.000Z,6.4
2019-02-08T17:02:00.000Z,6.2
2019-02-08T17:07:00.000Z,6.1
2019-02-08T17:12:00.000Z,6.0
2019-02-08T17:17:00.000Z,6.0
2019-02-08T17:22:00.000Z,5.9
2019-02-08T17:27:00.000Z,5.8
2019-02-08T17:32:00.000Z,5.7
2019-02-08T17:37:00.000Z,5.7
2019-02-08T17:42:00.000Z,5.6
2019-02-08T17:47:00.000Z,5.5
2019-02-08T17:52:00.000Z,5.4
2019-02-08T17:58:00.000Z,5.4
2019-02-08T18:03:00.000Z,5.3
2019-02-08T18:08:00.000Z,5.3
2019-02-08T18:13:00.000Z,5.3
2019-02-08T18:18:00.000Z,5.2
2019-02-08T18:23:00.000Z,5.2
2019-02-08T18:28:00.000Z,5.1
2019-02-08T18:33:00.000Z,5.1
2019-02-08T18:38:00.000Z,5.1
2019-02-08T18:43:00.000Z,5.0
2019-02-08T18:48:00.000Z,5.0
2019-02-08T18:53:00.000Z,4.9
2019-02-08T18:58:00.000Z,4.9
2019-02-08T19:03:00.000Z,4.9
2019-02-08T19:08:00.000Z,4.8
2019-02-08T19:13:00.000Z,4.8
2019-02-08T19:18:00.000Z,4.7
2019-02-08T19:23:00.000Z,4.7
2019-02-08T19:28:00.000Z,4.6
2019-02-08T19:33:00.000Z,4.5
2019-02-08T19:38:00.000Z,4.5
2019-02-08T19:43:00.000Z,4.4
2019-02-08T19:48:00.000Z,4.4
2019-02-08T19:53:00.000Z,4.3
2019-02-08T19:58:00.000Z,4.3
2019-02-08T20:03:00.000Z,4.3
2019-02-08T20:08:00.000Z,4.3
2019-02-08T20:13:00.000Z,4.3
2019-02-08T20:18:00.000Z,4.3
2019-02-08T20:23:00.000Z,4.3
2019-02-08T20:28:00.000Z,4.3
2019-02-08T20:33:00.000Z,4.3
2019-02-08T20:38:00.000Z,4.3
2019-02-08T20:43:00.000Z,4.2
2019-02-08T20:48:00.000Z,4.2
2019-02-08T20:53:00.000Z,4.2
2019-02-08T20:58:00.000Z,4.2
2019-02-08T21:05:00.000Z,4.2
2019-02-08T21:10:00.000Z,4.2
2019-02-08T21:15:00.000Z,4.1
2019-02-08T21:20:00.000Z,4.2
2019-02-08T21:25:00.000Z,4.1
2019-02-08T21:30:00.000Z,4.1
2019-02-08T21:35:00.000Z,4.1
2019-02-08T21:40:00.000Z,4.1
2019-02-08T21:45:00.000Z,4.1
2019-02-08T21:50:00.000Z,4.0
2019-02-08T21:55:00.000Z,4.0
2019-02-08T22:00:00.000Z,3.9
2019-02-08T22:05:00.000Z,3.9
2019-02-08T22:11:00.000Z,3.9
2019-02-08T22:16:00.000Z,3.9
2019-02-08T22:21:00.000Z,3.8
2019-02-08T22:26:00.000Z,3.8
2019-02-08T22:31:00.000Z,3.8
2019-02-08T22:36:00.000Z,3.8
2019-02-08T22:41:00.000Z,3.7
2019-02-08T22:46:00.000Z,3.6
2019-02-08T22:51:00.000Z,3.5
2019-02-08T22:56:00.000Z,3.4
2019-02-08T23:01:00.000Z,3.3
2019-02-08T23:06:00.000Z,3.2
2019-02-08T23:11:00.000Z,3.2
2019-02-08T23:16:00.000Z,3.1
2019-02-08T23:21:00.000Z,3.1
2019-02-08T23:26:00.000Z,3.1
2019-02-08T23:31:00.000Z,3.1
2019-02-08T23:36:00.000Z,3.0
2019-02-08T23:41:00.000Z,3.0
2019-02-08T23:46:00.000Z,3.0
2019-02-08T23:51:00.000Z,3.0
2019-02-08T23:56:00.000Z,2.9
